Portada
METAR-TAF:

METAR-TAF

Aeropuertos :

La Palma, España

Aeropuerto de La Palma

latitud: 28-37N, longitud: 017-45W, altitud: 29 m

Observación

El informe se hizo hace 41 minutos, a las 18:00 UTC
Viento 15 kt del norte-noreste, variando entre norte-noroeste y noreste
Temperatura 20°C
Humedad 83%
Presión 1022 hPa
Visibilidad 10 km o más
Nubes dispersas a una altura de 3000 ft

METAR: GCLA 161800Z 02015KT 340V050 9999 SCT030 20/17 Q1022

Hora: 18:41 (18:41 UTC)

Pronóstico

El informe se hizo hace 4 horas y 6 minutos, a las 14:35 UTC
Pronóstico válido del 16 a las 15 UTC al 17 a las 15 UTC
Viento 14 kt del norte
Visibilidad 10 km o más
Nubes dispersas a una altura de 3500 ft
Probabilidad 40% :
Temporalmente
del 16 a las 15 UTC al 17 a las 15 UTC
Visibilidad: 4900 m
lluvia

TAF: GCLA 161435Z 1615/1715 01014KT 9999 SCT035 TX20/1714Z TN16/1706Z PROB40 TEMPO 1615/1715 4900 RA

Observaciones y pronósticos meteorológicos de más de 4000 aeropuertos (mensajes METAR y TAF).

Los puntos amarillos y rojos representan las estaciones disponibles.

Ponga el ratón en el punto deseado para ver el nombre de la estación.

Haga clic para ver las observaciones y los pronósticos meteorológicos.

Para cambiar el mapa : haga clic en los botones verdes con una cruz de color negro para hacer un zoom, en el botón verde con un guión para alejar o en las flechas verdes para mapas adyacentes.


METAR-TAF: